createdAt,value
2018-07-15T00:01:35.574Z,99.99
2018-07-15T00:02:35.564Z,99.99
2018-07-15T00:04:28.498Z,99.99
2018-07-15T00:05:28.511Z,99.99
2018-07-15T00:07:21.457Z,99.99
2018-07-15T00:08:21.453Z,99.99
2018-07-15T00:10:14.381Z,99.99
2018-07-15T00:11:14.397Z,99.99
2018-07-15T00:13:07.343Z,99.99
2018-07-15T00:14:07.344Z,99.99
2018-07-15T00:16:00.280Z,99.99
2018-07-15T00:17:00.295Z,99.99
2018-07-15T00:18:53.250Z,99.99
2018-07-15T00:19:53.239Z,99.99
2018-07-15T00:21:46.184Z,99.99
2018-07-15T00:22:46.179Z,99.99
2018-07-15T00:24:39.119Z,99.99
2018-07-15T00:25:39.131Z,99.99
2018-07-15T00:27:32.077Z,99.99
2018-07-15T00:28:32.074Z,99.99
2018-07-15T00:30:25.004Z,99.99
2018-07-15T00:31:25.022Z,99.99
2018-07-15T00:33:17.962Z,99.99
2018-07-15T00:34:17.960Z,99.99
2018-07-15T00:36:10.885Z,99.99
2018-07-15T00:37:10.900Z,99.99
2018-07-15T00:39:03.866Z,99.99
2018-07-15T00:40:03.856Z,99.99
2018-07-15T00:41:56.801Z,99.99
2018-07-15T00:42:56.799Z,99.99
2018-07-15T00:44:49.725Z,99.99
2018-07-15T00:45:49.737Z,99.99
2018-07-15T00:47:42.687Z,99.99
2018-07-15T00:48:42.681Z,99.99
2018-07-15T00:50:35.608Z,99.99
2018-07-15T00:51:35.625Z,99.99
2018-07-15T00:53:28.573Z,99.99
2018-07-15T00:54:28.571Z,99.99
2018-07-15T00:56:21.501Z,99.99
2018-07-15T00:57:21.513Z,99.99
2018-07-15T00:59:14.463Z,99.99
2018-07-15T01:00:14.463Z,99.99
2018-07-15T01:02:07.406Z,99.99
2018-07-15T01:03:07.403Z,99.99
2018-07-15T01:05:00.328Z,99.99
2018-07-15T01:06:00.342Z,99.99
2018-07-15T01:07:53.296Z,99.99
2018-07-15T01:08:53.290Z,99.99
2018-07-15T01:10:46.224Z,99.99
2018-07-15T01:11:46.229Z,99.99
2018-07-15T01:13:39.175Z,99.99
2018-07-15T01:14:39.169Z,99.99
2018-07-15T01:16:32.101Z,99.99
2018-07-15T01:17:32.111Z,99.99
2018-07-15T01:19:25.073Z,99.99
2018-07-15T01:20:25.065Z,99.99
2018-07-15T01:22:18.013Z,99.99
2018-07-15T01:23:18.008Z,99.99
2018-07-15T01:25:10.934Z,99.99
2018-07-15T01:26:10.951Z,99.99
2018-07-15T01:28:03.899Z,99.99
2018-07-15T01:29:03.895Z,99.99
2018-07-15T01:30:56.827Z,99.99
2018-07-15T01:31:56.845Z,99.99
2018-07-15T01:33:49.791Z,99.99
2018-07-15T01:34:49.786Z,99.99
2018-07-15T01:36:42.712Z,99.99
2018-07-15T01:37:42.727Z,99.99
2018-07-15T01:39:35.674Z,99.99
2018-07-15T01:40:35.667Z,99.99
2018-07-15T01:42:28.620Z,99.99
2018-07-15T01:43:28.614Z,99.99
2018-07-15T01:45:21.541Z,99.99
2018-07-15T01:46:21.559Z,99.99
2018-07-15T01:48:14.499Z,99.99
2018-07-15T01:49:14.497Z,99.99
2018-07-15T01:51:07.424Z,99.99
2018-07-15T01:52:07.432Z,99.99
2018-07-15T01:54:00.383Z,99.99
2018-07-15T01:55:00.379Z,99.99
2018-07-15T02:23:51.918Z,99.99
2018-07-15T02:24:51.909Z,99.99
2018-07-15T02:26:44.823Z,99.99
2018-07-15T02:27:44.829Z,99.99
2018-07-15T02:29:37.763Z,99.99
2018-07-15T02:30:37.757Z,99.99
2018-07-15T02:32:30.695Z,99.99
2018-07-15T02:33:30.690Z,99.99
2018-07-15T02:35:23.611Z,99.99
2018-07-15T02:36:23.625Z,99.99
2018-07-15T02:38:16.561Z,99.99
2018-07-15T02:39:16.557Z,99.99
2018-07-15T02:41:09.476Z,99.99
2018-07-15T02:42:09.487Z,99.99
2018-07-15T02:44:02.446Z,99.99
2018-07-15T02:45:02.433Z,99.99
2018-07-15T02:46:55.362Z,99.99
2018-07-15T02:47:55.370Z,99.99
2018-07-15T02:49:48.313Z,99.99
2018-07-15T02:50:48.310Z,99.99
2018-07-15T02:52:41.259Z,99.99
2018-07-15T02:53:41.251Z,99.99
2018-07-15T02:55:34.181Z,99.99
2018-07-15T02:56:34.193Z,99.99
2018-07-15T02:58:27.167Z,99.99
2018-07-15T02:59:27.137Z,99.99
2018-07-15T03:01:20.060Z,99.99
2018-07-15T03:02:20.076Z,99.99
2018-07-15T03:04:13.022Z,99.99
2018-07-15T03:05:13.016Z,99.99
2018-07-15T03:07:05.936Z,99.99
2018-07-15T03:08:05.953Z,99.99
2018-07-15T03:09:58.898Z,99.99
2018-07-15T03:10:58.899Z,99.99
2018-07-15T03:12:51.838Z,99.99
2018-07-15T03:13:51.839Z,99.99
2018-07-15T03:15:44.783Z,99.99
2018-07-15T03:16:44.782Z,99.99
2018-07-15T03:18:37.720Z,99.99
2018-07-15T03:19:37.720Z,99.99
2018-07-15T03:21:30.643Z,99.99
2018-07-15T03:22:30.657Z,99.99
2018-07-15T03:24:23.606Z,99.99
2018-07-15T03:25:23.605Z,99.99
2018-07-15T03:27:16.530Z,99.99
2018-07-15T03:28:16.544Z,99.99
2018-07-15T03:30:09.486Z,99.99
2018-07-15T03:31:09.535Z,99.99
2018-07-15T03:33:02.434Z,99.99
2018-07-15T03:34:02.459Z,99.99
2018-07-15T03:35:55.371Z,99.99
2018-07-15T03:36:55.361Z,99.99
2018-07-15T03:38:48.308Z,99.99
2018-07-15T03:39:48.363Z,99.99
2018-07-15T03:41:41.230Z,99.99
2018-07-15T03:42:41.243Z,99.99
2018-07-15T03:44:34.242Z,99.99
2018-07-15T03:45:34.232Z,99.99
2018-07-15T03:47:27.176Z,99.99
2018-07-15T03:48:27.176Z,99.99
2018-07-15T03:50:20.124Z,99.99
2018-07-15T03:51:20.181Z,99.99
2018-07-15T03:53:13.044Z,99.99
2018-07-15T03:54:13.059Z,99.99
2018-07-15T03:56:06.008Z,99.99
2018-07-15T03:57:06.006Z,99.99
2018-07-15T03:58:58.946Z,99.99
2018-07-15T03:59:58.940Z,99.99
2018-07-15T04:01:51.864Z,99.99
2018-07-15T04:02:51.879Z,99.99
2018-07-15T04:04:44.835Z,99.99
2018-07-15T04:05:44.831Z,99.99
2018-07-15T04:07:37.755Z,99.99
2018-07-15T04:08:37.792Z,99.99
2018-07-15T04:10:30.712Z,99.99
2018-07-15T04:11:30.707Z,99.99
2018-07-15T04:13:23.635Z,99.99
2018-07-15T04:14:23.647Z,99.99
2018-07-15T04:16:16.596Z,99.99
2018-07-15T04:17:16.594Z,99.99
2018-07-15T04:19:09.537Z,99.99
2018-07-15T04:20:09.535Z,99.99
2018-07-15T04:22:02.468Z,99.99
2018-07-15T04:23:02.483Z,99.99
2018-07-15T04:24:55.432Z,99.99
2018-07-15T04:25:55.429Z,99.99
2018-07-15T04:27:48.353Z,99.99
2018-07-15T04:28:48.367Z,99.99
2018-07-15T04:30:41.314Z,99.99
2018-07-15T04:31:41.312Z,99.99
2018-07-15T04:33:34.236Z,99.99
2018-07-15T04:34:34.255Z,99.99
2018-07-15T04:36:27.199Z,99.99
2018-07-15T04:37:27.196Z,99.99
2018-07-15T04:39:20.150Z,99.99
2018-07-15T04:40:20.138Z,99.99
2018-07-15T04:42:13.062Z,99.99
2018-07-15T04:43:13.081Z,99.99
2018-07-15T04:45:06.033Z,99.99
2018-07-15T04:46:06.047Z,99.99
2018-07-15T04:47:58.954Z,99.99
2018-07-15T04:48:58.967Z,99.99
2018-07-15T04:50:51.911Z,99.99
2018-07-15T04:51:51.911Z,99.99
2018-07-15T04:53:44.835Z,99.99
2018-07-15T04:54:44.849Z,99.99
2018-07-15T04:56:37.796Z,99.99
2018-07-15T04:57:37.792Z,99.99
2018-07-15T04:59:30.740Z,99.99
2018-07-15T05:00:30.735Z,99.99
2018-07-15T05:02:23.665Z,99.99
2018-07-15T05:03:23.680Z,99.99
2018-07-15T05:05:16.635Z,99.99
2018-07-15T05:06:16.626Z,99.99
2018-07-15T05:08:09.546Z,99.99
2018-07-15T05:09:09.564Z,99.99
2018-07-15T05:11:02.502Z,99.99
2018-07-15T05:12:02.500Z,99.99
2018-07-15T05:13:55.446Z,99.99
2018-07-15T05:14:55.446Z,99.99
2018-07-15T05:16:48.391Z,99.99
2018-07-15T05:17:48.382Z,99.99
2018-07-15T05:19:41.331Z,99.99
2018-07-15T05:20:41.330Z,99.99
2018-07-15T05:22:34.260Z,99.99
2018-07-15T05:23:34.271Z,99.99
2018-07-15T05:25:27.218Z,99.99
2018-07-15T05:26:27.216Z,99.99
2018-07-15T05:28:20.142Z,99.99
2018-07-15T05:29:20.157Z,99.99
2018-07-15T05:31:13.105Z,99.99
2018-07-15T05:32:13.101Z,99.99
2018-07-15T05:34:06.028Z,99.99
2018-07-15T05:35:06.054Z,99.99
2018-07-15T05:36:58.992Z,92.45
2018-07-15T05:37:58.987Z,81.62
2018-07-15T05:39:51.937Z,70.60
2018-07-15T05:40:51.936Z,67.85
2018-07-15T05:42:44.862Z,62.23
2018-07-15T05:43:44.883Z,60.80
2018-07-15T05:45:37.838Z,57.17
2018-07-15T05:46:37.834Z,56.32
2018-07-15T05:48:30.771Z,55.22
2018-07-15T05:49:30.792Z,55.80
2018-07-15T05:51:23.747Z,54.74
2018-07-15T05:52:23.756Z,55.00
2018-07-15T05:54:16.690Z,54.96
2018-07-15T05:55:16.710Z,53.79
2018-07-15T05:57:09.670Z,53.59
2018-07-15T05:58:09.668Z,54.28
2018-07-15T06:00:02.631Z,52.75
2018-07-15T06:01:02.640Z,52.58
2018-07-15T06:02:55.585Z,51.53
2018-07-15T06:03:55.609Z,50.68
2018-07-15T06:05:48.573Z,49.90
2018-07-15T06:06:48.574Z,49.68
2018-07-15T06:08:41.521Z,48.68
2018-07-15T06:09:41.543Z,48.66
2018-07-15T06:11:34.503Z,49.80
2018-07-15T06:12:34.509Z,50.80
2018-07-15T06:14:27.456Z,48.17
2018-07-15T06:15:27.482Z,49.02
2018-07-15T06:17:20.448Z,50.60
2018-07-15T06:18:20.454Z,51.77
2018-07-15T06:20:13.424Z,52.53
2018-07-15T06:21:13.427Z,53.47
2018-07-15T06:23:06.374Z,53.47
2018-07-15T06:24:06.403Z,53.96
2018-07-15T06:25:59.366Z,53.40
2018-07-15T06:26:59.369Z,52.92
2018-07-15T06:28:52.314Z,53.59
2018-07-15T06:29:52.339Z,52.55
2018-07-15T06:31:45.351Z,50.60
2018-07-15T06:32:45.326Z,49.93
2018-07-15T06:34:38.254Z,50.65
2018-07-15T06:35:38.281Z,52.58
2018-07-15T06:37:31.376Z,52.06
2018-07-15T06:38:31.386Z,52.38
2018-07-15T06:40:24.357Z,53.04
2018-07-15T06:41:24.358Z,52.94
2018-07-15T06:43:17.304Z,52.26
2018-07-15T06:44:17.329Z,53.75
2018-07-15T06:46:10.300Z,51.31
2018-07-15T06:47:10.307Z,51.99
2018-07-15T06:49:03.251Z,49.76
2018-07-15T06:50:03.276Z,50.70
2018-07-15T06:51:56.246Z,49.22
2018-07-15T06:52:56.252Z,51.34
2018-07-15T06:54:49.200Z,52.09
2018-07-15T06:55:49.291Z,51.61
2018-07-15T06:57:42.196Z,51.31
2018-07-15T06:58:42.201Z,51.34
2018-07-15T07:00:35.179Z,51.24
2018-07-15T07:01:35.235Z,50.95
2018-07-15T07:03:28.131Z,50.95
2018-07-15T07:04:28.155Z,51.92
2018-07-15T07:06:21.131Z,49.71
2018-07-15T07:07:21.317Z,51.09
2018-07-15T07:09:14.078Z,49.37
2018-07-15T07:10:14.105Z,49.00
2018-07-15T07:12:07.067Z,47.46
2018-07-15T07:13:07.074Z,47.28
2018-07-15T07:15:00.026Z,47.85
2018-07-15T07:16:00.045Z,46.53
2018-07-15T07:17:53.017Z,45.14
2018-07-15T07:18:53.018Z,45.78
2018-07-15T07:20:45.985Z,45.87
2018-07-15T07:21:45.990Z,47.02
2018-07-15T07:23:38.942Z,47.97
2018-07-15T07:24:38.959Z,47.92
2018-07-15T07:26:31.927Z,49.19
2018-07-15T07:27:31.934Z,50.85
2018-07-15T07:29:24.878Z,52.58
2018-07-15T07:30:24.902Z,50.78
2018-07-15T07:32:17.870Z,48.88
2018-07-15T07:33:17.875Z,48.66
2018-07-15T07:35:10.818Z,47.58
2018-07-15T07:36:10.851Z,48.44
2018-07-15T07:38:03.810Z,49.78
2018-07-15T07:39:03.825Z,49.22
2018-07-15T07:40:56.786Z,47.27
2018-07-15T07:41:56.799Z,47.63
2018-07-15T07:43:49.737Z,49.27
2018-07-15T07:44:49.765Z,49.88
2018-07-15T07:46:42.731Z,49.78
2018-07-15T07:47:42.735Z,49.49
2018-07-15T07:49:35.681Z,49.80
2018-07-15T07:50:35.703Z,47.58
2018-07-15T07:52:28.671Z,47.61
2018-07-15T07:53:28.680Z,46.17
2018-07-15T07:55:21.629Z,45.81
2018-07-15T07:56:21.642Z,48.51
2018-07-15T07:58:14.613Z,48.88
2018-07-15T07:59:14.615Z,49.46
2018-07-15T08:01:07.581Z,50.73
2018-07-15T08:02:07.585Z,49.85
2018-07-15T08:04:00.533Z,51.02
2018-07-15T08:05:00.554Z,48.68
2018-07-15T08:06:53.520Z,47.76
2018-07-15T08:07:53.528Z,48.85
2018-07-15T08:09:46.473Z,50.12
2018-07-15T08:10:46.494Z,48.05
2018-07-15T08:12:39.464Z,49.61
2018-07-15T08:13:39.462Z,50.75
2018-07-15T08:15:32.407Z,50.97
2018-07-15T08:16:32.436Z,50.60
2018-07-15T08:18:25.393Z,47.61
2018-07-15T08:19:25.395Z,46.34
2018-07-15T08:21:18.355Z,47.83
2018-07-15T08:22:18.361Z,48.10
2018-07-15T08:24:11.306Z,47.88
2018-07-15T08:25:11.330Z,49.41
2018-07-15T08:27:04.299Z,46.81
2018-07-15T08:28:04.331Z,48.27
2018-07-15T08:29:57.244Z,48.05
2018-07-15T08:30:57.268Z,46.88
2018-07-15T08:32:50.227Z,49.68
2018-07-15T08:33:50.230Z,49.19
2018-07-15T08:35:43.169Z,47.54
2018-07-15T08:36:43.196Z,48.97
2018-07-15T08:38:36.155Z,50.99
2018-07-15T08:39:36.157Z,50.41
2018-07-15T08:41:29.123Z,47.13
2018-07-15T08:42:29.124Z,48.78
2018-07-15T08:44:22.067Z,50.12
2018-07-15T08:45:22.086Z,48.83
2018-07-15T08:47:15.048Z,50.38
2018-07-15T08:48:15.048Z,49.92
2018-07-15T08:50:07.994Z,46.67
2018-07-15T08:51:08.019Z,46.50
2018-07-15T08:53:00.973Z,47.76
2018-07-15T08:54:00.977Z,49.19
2018-07-15T08:55:53.913Z,47.56
2018-07-15T08:56:54.226Z,47.08
2018-07-15T08:58:46.896Z,46.96
2018-07-15T08:59:46.896Z,49.78
2018-07-15T09:01:39.863Z,49.95
2018-07-15T09:02:39.858Z,49.10
2018-07-15T09:04:32.798Z,48.22
2018-07-15T09:05:32.819Z,46.37
2018-07-15T09:07:25.780Z,47.64
2018-07-15T09:08:25.776Z,48.13
2018-07-15T09:10:18.722Z,46.15
2018-07-15T09:11:18.742Z,45.40
2018-07-15T09:13:11.702Z,45.31
2018-07-15T09:14:11.705Z,43.96
2018-07-15T09:16:04.642Z,43.60
2018-07-15T09:17:04.662Z,41.96
2018-07-15T09:18:57.620Z,40.21
2018-07-15T09:19:57.624Z,40.31
2018-07-15T09:21:50.663Z,39.06
2018-07-15T09:22:50.589Z,39.75
2018-07-15T09:24:43.526Z,42.65
2018-07-15T09:25:43.549Z,43.60
2018-07-15T09:27:36.502Z,43.13
2018-07-15T09:28:36.502Z,42.24
2018-07-15T09:30:29.440Z,42.63
2018-07-15T09:31:29.459Z,42.91
2018-07-15T09:33:22.419Z,42.82
2018-07-15T09:34:22.420Z,42.50
2018-07-15T09:36:15.360Z,43.65
2018-07-15T09:37:15.378Z,45.23
2018-07-15T09:39:08.338Z,45.32
2018-07-15T09:40:08.350Z,45.06
2018-07-15T09:42:01.295Z,46.13
2018-07-15T09:43:01.299Z,44.28
2018-07-15T09:44:54.241Z,44.35
2018-07-15T09:45:54.261Z,44.45
2018-07-15T09:47:47.220Z,44.86
2018-07-15T09:48:47.221Z,44.48
2018-07-15T09:50:40.161Z,43.79
2018-07-15T09:51:40.182Z,43.50
2018-07-15T09:53:33.138Z,45.79
2018-07-15T09:54:33.139Z,46.86
2018-07-15T09:56:26.085Z,43.65
2018-07-15T09:57:26.105Z,44.43
2018-07-15T09:59:19.056Z,45.81
2018-07-15T10:00:19.061Z,46.30
2018-07-15T10:02:12.019Z,45.62
2018-07-15T10:03:12.015Z,45.14
2018-07-15T10:05:04.951Z,46.88
2018-07-15T10:06:04.976Z,45.74
2018-07-15T10:07:57.933Z,45.28
2018-07-15T10:08:57.939Z,45.84
2018-07-15T10:10:50.876Z,44.79
2018-07-15T10:11:50.896Z,45.67
2018-07-15T10:13:43.856Z,44.69
2018-07-15T10:14:43.851Z,46.42
2018-07-15T10:16:36.796Z,46.51
2018-07-15T10:17:36.812Z,45.64
2018-07-15T10:19:29.774Z,46.15
2018-07-15T10:20:29.775Z,46.25
2018-07-15T10:22:22.731Z,43.81
2018-07-15T10:23:22.734Z,45.47
2018-07-15T10:25:15.673Z,44.59
2018-07-15T10:26:15.694Z,44.69
2018-07-15T10:28:08.650Z,45.47
2018-07-15T10:29:08.651Z,44.28
2018-07-15T10:31:01.589Z,45.64
2018-07-15T10:32:01.611Z,46.13
2018-07-15T10:33:54.568Z,44.20
2018-07-15T10:34:54.570Z,44.18
2018-07-15T10:36:47.510Z,45.45
2018-07-15T10:37:47.533Z,46.13
2018-07-15T10:39:40.493Z,45.64
2018-07-15T10:40:40.494Z,45.74
2018-07-15T10:42:33.466Z,46.91
2018-07-15T10:43:33.455Z,45.47
2018-07-15T10:45:26.390Z,45.42
2018-07-15T10:46:26.413Z,45.15
2018-07-15T10:48:19.370Z,44.57
2018-07-15T10:49:19.371Z,44.26
2018-07-15T10:51:12.316Z,45.52
2018-07-15T10:52:12.337Z,45.15
2018-07-15T10:54:05.293Z,44.18
2018-07-15T10:55:05.290Z,43.13
2018-07-15T10:56:58.233Z,41.96
2018-07-15T10:57:58.255Z,43.25
2018-07-15T10:59:51.211Z,42.59
2018-07-15T11:00:51.215Z,42.76
2018-07-15T11:02:44.184Z,42.18
2018-07-15T11:03:44.172Z,42.57
2018-07-15T11:05:37.117Z,41.60
2018-07-15T11:06:37.134Z,42.96
2018-07-15T11:08:30.090Z,42.10
2018-07-15T11:09:30.090Z,41.81
2018-07-15T11:11:23.029Z,40.16
2018-07-15T11:12:23.051Z,39.88
2018-07-15T11:14:16.011Z,39.98
2018-07-15T11:15:16.016Z,40.35
2018-07-15T11:17:08.951Z,41.11
2018-07-15T11:18:08.983Z,41.19
2018-07-15T11:20:01.934Z,42.96
2018-07-15T11:21:01.933Z,43.05
2018-07-15T11:22:54.875Z,41.32
2018-07-15T11:23:54.893Z,40.73
2018-07-15T11:25:47.861Z,41.22
2018-07-15T11:26:47.856Z,41.99
2018-07-15T11:28:40.811Z,42.28
2018-07-15T11:29:40.819Z,42.30
2018-07-15T11:31:33.767Z,42.00
2018-07-15T11:32:33.782Z,43.05
2018-07-15T11:34:26.741Z,41.13
2018-07-15T11:35:26.748Z,42.12
2018-07-15T11:37:19.686Z,40.56
2018-07-15T11:38:19.705Z,40.08
2018-07-15T11:40:12.665Z,39.96
2018-07-15T11:41:12.666Z,39.65
2018-07-15T11:43:05.608Z,40.45
2018-07-15T11:44:05.629Z,40.16
2018-07-15T11:45:58.583Z,39.88
2018-07-15T11:46:58.590Z,40.76
2018-07-15T11:48:51.548Z,40.19
2018-07-15T11:49:51.548Z,40.97
2018-07-15T11:51:44.488Z,38.43
2018-07-15T11:52:44.511Z,39.51
2018-07-15T11:54:37.485Z,39.78
2018-07-15T11:55:37.472Z,39.49
2018-07-15T11:57:30.411Z,38.71
2018-07-15T11:58:30.432Z,38.81
2018-07-15T12:00:23.389Z,39.59
2018-07-15T12:01:23.390Z,38.61
2018-07-15T12:03:16.333Z,37.73
2018-07-15T12:04:16.363Z,37.93
2018-07-15T12:06:09.318Z,38.32
2018-07-15T12:07:09.316Z,38.51
2018-07-15T12:09:02.259Z,39.59
2018-07-15T12:10:02.279Z,39.39
2018-07-15T12:11:55.235Z,39.69
2018-07-15T12:12:55.236Z,38.34
2018-07-15T12:14:48.198Z,36.88
2018-07-15T12:15:48.200Z,38.14
2018-07-15T12:17:41.138Z,38.43
2018-07-15T12:18:41.161Z,38.32
2018-07-15T12:20:34.187Z,37.85
2018-07-15T12:21:34.132Z,36.96
2018-07-15T12:23:27.071Z,37.46
2018-07-15T12:24:27.095Z,39.12
2018-07-15T12:26:20.052Z,39.22
2018-07-15T12:27:20.056Z,39.70
2018-07-15T12:29:12.994Z,37.09
2018-07-15T12:30:13.018Z,36.90
2018-07-15T12:32:05.990Z,36.31
2018-07-15T12:33:05.978Z,35.80
2018-07-15T12:34:58.937Z,37.27
2018-07-15T12:35:58.943Z,36.29
2018-07-15T12:37:51.883Z,35.71
2018-07-15T12:38:51.904Z,35.90
2018-07-15T12:40:44.863Z,37.27
2018-07-15T12:41:44.867Z,37.37
2018-07-15T12:43:37.821Z,37.15
2018-07-15T12:44:37.838Z,37.25
2018-07-15T12:46:30.801Z,38.04
2018-07-15T12:47:30.805Z,38.53
2018-07-15T12:49:23.743Z,38.53
2018-07-15T12:50:23.763Z,38.34
2018-07-15T12:52:16.722Z,37.85
2018-07-15T12:53:16.723Z,37.65
2018-07-15T12:55:09.683Z,37.55
2018-07-15T12:56:09.687Z,37.37
2018-07-15T12:58:02.626Z,35.72
2018-07-15T12:59:02.646Z,36.70
2018-07-15T13:00:55.606Z,36.21
2018-07-15T13:01:55.620Z,36.31
2018-07-15T13:03:48.553Z,37.65
2018-07-15T13:04:48.567Z,37.67
2018-07-15T13:06:41.531Z,36.13
2018-07-15T13:07:41.539Z,36.99
2018-07-15T13:09:34.478Z,36.60
2018-07-15T13:10:34.494Z,36.60
2018-07-15T13:12:27.456Z,37.27
2018-07-15T13:13:27.458Z,36.10
2018-07-15T13:15:20.400Z,37.17
2018-07-15T13:16:20.495Z,37.95
2018-07-15T13:18:13.379Z,36.58
2018-07-15T13:19:13.382Z,37.19
2018-07-15T13:21:06.338Z,36.98
2018-07-15T13:22:06.341Z,37.27
2018-07-15T13:23:59.279Z,37.27
2018-07-15T13:24:59.301Z,36.29
2018-07-15T13:26:52.261Z,37.27
2018-07-15T13:27:52.265Z,37.07
2018-07-15T13:29:45.212Z,37.29
2018-07-15T13:30:45.225Z,36.58
2018-07-15T13:32:38.185Z,36.78
2018-07-15T13:33:38.187Z,35.88
2018-07-15T13:35:31.129Z,36.86
2018-07-15T13:36:31.147Z,35.98
2018-07-15T13:38:24.114Z,37.05
2018-07-15T13:39:24.108Z,37.33
2018-07-15T13:41:17.071Z,36.84
2018-07-15T13:42:17.068Z,36.76
2018-07-15T13:44:10.008Z,37.17
2018-07-15T13:45:10.037Z,35.69
2018-07-15T13:47:02.989Z,34.83
2018-07-15T13:48:02.995Z,35.31
2018-07-15T13:49:55.934Z,36.00
2018-07-15T13:50:55.972Z,37.25
2018-07-15T13:52:49.417Z,37.05
2018-07-15T13:53:49.413Z,36.68
2018-07-15T13:55:42.353Z,35.71
2018-07-15T13:56:42.374Z,35.41
2018-07-15T13:58:35.333Z,36.39
2018-07-15T13:59:35.368Z,35.41
2018-07-15T14:01:28.291Z,35.78
2018-07-15T14:02:28.291Z,35.20
2018-07-15T14:04:21.234Z,35.90
2018-07-15T14:05:21.256Z,35.20
2018-07-15T14:07:14.213Z,33.83
2018-07-15T14:08:14.216Z,35.20
2018-07-15T14:10:07.152Z,34.32
2018-07-15T14:11:07.173Z,35.22
2018-07-15T14:13:00.135Z,34.73
2018-07-15T14:14:00.135Z,33.73
2018-07-15T14:15:53.077Z,33.07
2018-07-15T14:16:53.096Z,32.39
2018-07-15T14:18:46.054Z,32.19
2018-07-15T14:19:46.054Z,32.19
2018-07-15T14:21:39.018Z,34.24
2018-07-15T14:22:39.019Z,34.14
2018-07-15T14:24:31.956Z,34.73
2018-07-15T14:25:31.981Z,35.41
2018-07-15T14:27:24.935Z,33.85
2018-07-15T14:28:24.939Z,34.05
2018-07-15T14:30:17.886Z,34.73
2018-07-15T14:31:17.909Z,35.02
2018-07-15T14:33:10.872Z,32.87
2018-07-15T14:34:10.869Z,33.46
2018-07-15T14:36:03.806Z,33.65
2018-07-15T14:37:03.830Z,33.26
2018-07-15T14:38:56.792Z,33.17
2018-07-15T14:39:56.795Z,33.17
2018-07-15T14:41:49.754Z,32.97
2018-07-15T14:42:49.754Z,34.05
2018-07-15T14:44:42.703Z,32.78
2018-07-15T14:45:42.719Z,32.97
2018-07-15T14:47:35.676Z,34.14
2018-07-15T14:48:35.673Z,34.63
2018-07-15T14:50:28.615Z,34.34
2018-07-15T14:51:28.637Z,34.05
2018-07-15T14:53:21.599Z,33.56
2018-07-15T14:54:21.600Z,33.85
2018-07-15T14:56:14.542Z,32.58
2018-07-15T14:57:14.563Z,32.78
2018-07-15T14:59:07.522Z,32.47
2018-07-15T15:00:07.525Z,33.54
2018-07-15T15:02:00.521Z,34.22
2018-07-15T15:03:00.487Z,34.81
2018-07-15T15:04:53.431Z,34.22
2018-07-15T15:05:53.450Z,34.81
2018-07-15T15:07:46.905Z,33.15
2018-07-15T15:08:46.911Z,33.25
2018-07-15T15:10:39.849Z,33.26
2018-07-15T15:11:39.868Z,33.95
2018-07-15T15:13:32.827Z,33.93
2018-07-15T15:14:32.828Z,33.25
2018-07-15T15:16:25.772Z,33.64
2018-07-15T15:17:25.805Z,32.96
2018-07-15T15:19:18.752Z,33.34
2018-07-15T15:20:18.750Z,32.57
2018-07-15T15:22:11.709Z,32.86
2018-07-15T15:23:11.714Z,33.44
2018-07-15T15:25:04.648Z,34.12
2018-07-15T15:26:04.670Z,33.93
2018-07-15T15:27:57.631Z,33.64
2018-07-15T15:28:57.635Z,34.22
2018-07-15T15:30:50.574Z,34.12
2018-07-15T15:31:50.593Z,34.52
2018-07-15T15:33:43.591Z,34.21
2018-07-15T15:34:43.557Z,33.44
2018-07-15T15:36:36.493Z,32.96
2018-07-15T15:37:36.515Z,33.14
2018-07-15T15:39:29.475Z,33.23
2018-07-15T15:40:29.475Z,33.72
2018-07-15T15:42:22.452Z,33.72
2018-07-15T15:43:22.439Z,34.12
2018-07-15T15:45:15.377Z,33.82
2018-07-15T15:46:15.395Z,33.04
2018-07-15T15:48:08.363Z,33.33
2018-07-15T15:49:08.365Z,33.43
2018-07-15T15:51:01.315Z,33.62
2018-07-15T15:52:01.321Z,34.11
2018-07-15T15:53:54.285Z,32.82
2018-07-15T15:54:54.283Z,32.45
2018-07-15T15:56:47.225Z,33.02
2018-07-15T15:57:47.262Z,33.04
2018-07-15T15:59:40.202Z,31.38
2018-07-15T16:00:40.203Z,31.38
2018-07-15T16:02:33.164Z,32.35
2018-07-15T16:03:33.165Z,33.53
2018-07-15T16:05:26.114Z,33.14
2018-07-15T16:06:26.132Z,32.65
2018-07-15T16:08:19.086Z,34.01
2018-07-15T16:09:19.086Z,34.31
2018-07-15T16:11:12.038Z,34.19
2018-07-15T16:12:12.056Z,34.29
2018-07-15T16:14:05.011Z,32.65
2018-07-15T16:15:05.014Z,31.76
2018-07-15T16:16:57.955Z,31.87
2018-07-15T16:17:57.973Z,32.75
2018-07-15T16:19:50.935Z,32.43
2018-07-15T16:20:50.936Z,32.05
2018-07-15T16:22:43.896Z,31.66
2018-07-15T16:23:43.895Z,32.81
2018-07-15T16:25:36.836Z,32.92
2018-07-15T16:26:36.864Z,32.91
2018-07-15T16:28:29.818Z,33.78
2018-07-15T16:29:29.819Z,34.37
2018-07-15T16:31:22.766Z,33.59
2018-07-15T16:32:22.786Z,33.59
2018-07-15T16:34:15.744Z,33.78
2018-07-15T16:35:15.742Z,34.37
2018-07-15T16:37:08.696Z,33.20
2018-07-15T16:38:08.718Z,33.49
2018-07-15T16:40:01.661Z,34.17
2018-07-15T16:41:01.666Z,34.17
2018-07-15T16:42:54.622Z,34.56
2018-07-15T16:43:54.626Z,34.08
2018-07-15T16:45:47.564Z,33.98
2018-07-15T16:46:47.586Z,34.17
2018-07-15T16:48:40.541Z,34.66
2018-07-15T16:49:40.547Z,34.47
2018-07-15T16:51:33.483Z,35.15
2018-07-15T16:52:33.503Z,35.03
2018-07-15T16:54:26.456Z,34.55
2018-07-15T16:55:26.464Z,34.35
2018-07-15T16:57:19.396Z,34.06
2018-07-15T16:58:19.423Z,34.16
2018-07-15T17:00:12.378Z,34.55
2018-07-15T17:01:12.379Z,34.64
2018-07-15T17:03:05.364Z,34.53
2018-07-15T17:04:05.335Z,34.92
2018-07-15T17:05:58.278Z,34.43
2018-07-15T17:06:58.365Z,34.92
2018-07-15T17:08:51.252Z,34.53
2018-07-15T17:09:51.253Z,35.31
2018-07-15T17:11:44.217Z,36.18
2018-07-15T17:12:44.215Z,35.70
2018-07-15T17:14:37.171Z,35.60
2018-07-15T17:15:37.175Z,35.60
2018-07-15T17:17:30.185Z,35.41
2018-07-15T17:18:30.208Z,35.60
2018-07-15T17:20:23.166Z,36.18
2018-07-15T17:21:23.166Z,35.68
2018-07-15T17:23:16.136Z,35.39
2018-07-15T17:24:16.125Z,35.68
2018-07-15T17:26:09.061Z,35.21
2018-07-15T17:27:09.083Z,34.90
2018-07-15T17:29:02.035Z,35.02
2018-07-15T17:30:02.036Z,35.49
2018-07-15T17:31:54.970Z,35.89
2018-07-15T17:32:54.993Z,35.78
2018-07-15T17:34:47.950Z,35.97
2018-07-15T17:35:47.948Z,36.16
2018-07-15T17:37:40.888Z,36.07
2018-07-15T17:38:40.905Z,36.65
2018-07-15T17:40:33.931Z,36.46
2018-07-15T17:41:33.868Z,36.75
2018-07-15T17:43:26.830Z,37.14
2018-07-15T17:44:26.814Z,36.93
2018-07-15T17:46:19.785Z,36.63
2018-07-15T17:47:19.779Z,37.22
2018-07-15T17:49:12.728Z,37.80
2018-07-15T17:50:12.726Z,37.70
2018-07-15T17:52:05.678Z,37.12
2018-07-15T17:53:05.688Z,36.73
2018-07-15T17:54:58.648Z,36.93
2018-07-15T17:55:58.655Z,36.73
2018-07-15T17:57:51.606Z,37.41
2018-07-15T17:58:51.670Z,38.39
2018-07-15T18:00:44.575Z,37.12
2018-07-15T18:01:44.576Z,37.02
2018-07-15T18:03:37.514Z,37.01
2018-07-15T18:04:37.573Z,36.42
2018-07-15T18:06:30.486Z,37.10
2018-07-15T18:07:30.488Z,37.10
2018-07-15T18:09:23.450Z,37.59
2018-07-15T18:10:23.447Z,36.81
2018-07-15T18:12:16.383Z,37.10
2018-07-15T18:13:16.406Z,37.20
2018-07-15T18:15:09.363Z,37.78
2018-07-15T18:16:09.401Z,37.88
2018-07-15T18:18:02.298Z,38.07
2018-07-15T18:19:02.316Z,38.27
2018-07-15T18:20:55.310Z,38.37
2018-07-15T18:21:55.309Z,39.32
2018-07-15T18:23:48.276Z,38.44
2018-07-15T18:24:48.269Z,38.34
2018-07-15T18:26:41.198Z,38.64
2018-07-15T18:27:41.255Z,38.73
2018-07-15T18:29:34.190Z,39.22
2018-07-15T18:30:34.193Z,39.32
2018-07-15T18:32:27.130Z,39.22
2018-07-15T18:33:27.214Z,39.41
2018-07-15T18:35:20.102Z,39.39
2018-07-15T18:36:20.103Z,39.41
2018-07-15T18:38:13.040Z,39.78
2018-07-15T18:39:13.124Z,39.59
2018-07-15T18:41:06.022Z,39.59
2018-07-15T18:42:06.019Z,39.98
2018-07-15T18:43:58.999Z,40.17
2018-07-15T18:44:59.050Z,40.75
2018-07-15T18:46:51.916Z,40.36
2018-07-15T18:47:51.939Z,40.05
2018-07-15T18:49:44.892Z,40.05
2018-07-15T18:50:44.893Z,40.73
2018-07-15T18:52:37.841Z,41.02
2018-07-15T18:53:37.893Z,41.02
2018-07-15T18:55:30.820Z,41.02
2018-07-15T18:56:30.808Z,41.51
2018-07-15T18:58:23.748Z,41.58
2018-07-15T18:59:23.763Z,41.39
2018-07-15T19:01:16.718Z,41.49